Time;durP1;ratioP1;P1;durP2;ratioP2;P2;SDS_P1;SDS_P2;PMS_P1;PMS_P2;Temp;Humidity;BMP_temperature;BMP_pressure;BME280_temperature;BME280_humidity;BME280_pressure;Samples;Min_cycle;Max_cycle;Signal;HPM_P1;HPM_P2
2022/04/24 00:01:50;;;;;;;59.87;31.53;;;11.30;99.90;;;9.75;100.00;99287.53;10311790;28;96607;-79
2022/04/24 00:06:53;;;;;;;64.73;32.30;;;11.30;99.90;;;9.75;100.00;99290.19;10330608;28;97420;-79
2022/04/24 00:11:57;;;;;;;61.23;31.33;;;11.30;99.90;;;9.77;100.00;99288.16;10315268;28;96615;-79
2022/04/24 00:17:01;;;;;;;65.03;32.90;;;11.40;99.90;;;9.79;100.00;99288.00;10331301;28;97439;-79
2022/04/24 00:22:04;;;;;;;70.90;33.47;;;11.40;99.90;;;9.80;100.00;99287.81;10335981;28;97427;-78
2022/04/24 00:27:08;;;;;;;66.00;32.33;;;11.40;99.90;;;9.83;100.00;99283.94;10316401;28;96982;-79
2022/04/24 00:32:11;;;;;;;61.73;31.90;;;11.40;99.90;;;9.82;100.00;99266.38;10316158;28;96680;-78
2022/04/24 00:37:14;;;;;;;59.03;29.00;;;11.40;99.90;;;9.82;100.00;99264.56;10326413;28;96556;-78
2022/04/24 00:42:18;;;;;;;57.53;30.33;;;11.40;99.90;;;9.81;100.00;99251.47;10343309;28;96553;-79
2022/04/24 00:47:23;;;;;;;70.07;28.93;;;11.40;99.90;;;9.78;100.00;99241.25;10325025;28;96609;-79
2022/04/24 00:52:27;;;;;;;54.73;27.77;;;11.40;99.90;;;9.74;100.00;99240.78;10336670;28;96622;-78
2022/04/24 00:57:30;;;;;;;64.93;29.50;;;11.40;99.90;;;9.69;100.00;99252.97;10314853;28;97171;-78
2022/04/24 01:02:33;;;;;;;60.40;30.07;;;11.30;99.90;;;9.68;100.00;99246.84;10291491;28;96956;-78
2022/04/24 01:07:36;;;;;;;57.07;27.20;;;11.30;99.90;;;9.69;100.00;99247.66;10294509;28;97373;-79
2022/04/24 01:12:40;;;;;;;47.03;25.10;;;11.30;99.90;;;9.66;100.00;99256.81;10335909;28;96587;-79
2022/04/24 01:17:44;;;;;;;51.60;26.77;;;11.30;99.90;;;9.67;100.00;99241.72;10332847;28;98317;-78
2022/04/24 01:22:47;;;;;;;52.33;26.23;;;11.30;99.90;;;9.69;100.00;99245.81;10311562;28;96521;-78
2022/04/24 01:27:49;;;;;;;50.67;26.97;;;11.30;99.90;;;9.69;100.00;99240.53;10330923;28;96598;-77
2022/04/24 01:32:52;;;;;;;45.97;24.07;;;11.30;99.90;;;9.69;100.00;99232.56;10344876;28;97235;-78
2022/04/24 01:37:58;;;;;;;50.10;26.73;;;11.30;99.90;;;9.70;100.00;99231.53;10331607;28;96510;-78
2022/04/24 01:43:01;;;;;;;55.53;25.83;;;11.30;99.90;;;9.70;100.00;99226.25;10318566;28;98394;-77
2022/04/24 01:48:04;;;;;;;51.30;27.17;;;11.30;99.90;;;9.69;100.00;99221.13;10338712;28;96501;-77
2022/04/24 01:53:07;;;;;;;50.00;26.77;;;11.30;99.90;;;9.68;100.00;99219.50;10332252;28;97137;-77
2022/04/24 01:58:10;;;;;;;44.77;23.43;;;11.30;99.90;;;9.65;100.00;99220.66;10352053;28;97005;-77
2022/04/24 02:03:13;;;;;;;44.63;23.30;;;11.30;99.90;;;9.63;100.00;99220.84;10319287;28;98102;-77
2022/04/24 02:08:16;;;;;;;36.47;20.67;;;11.30;99.90;;;9.63;100.00;99225.34;10332170;28;96474;-79
2022/04/24 02:13:19;;;;;;;39.73;20.90;;;11.30;99.90;;;9.57;100.00;99226.91;10305334;28;96572;-79
2022/04/24 02:18:22;;;;;;;34.77;20.70;;;11.20;99.90;;;9.56;100.00;99227.91;10329520;28;97943;-78
2022/04/24 02:23:25;;;;;;;38.50;21.53;;;11.20;99.90;;;9.55;100.00;99225.47;10350872;28;96768;-79
2022/04/24 02:28:28;;;;;;;34.63;20.57;;;11.20;99.90;;;9.52;100.00;99220.50;10348075;28;96583;-79
2022/04/24 02:33:31;;;;;;;32.80;18.67;;;11.20;99.90;;;9.51;100.00;99218.88;10324770;28;97248;-79
2022/04/24 02:38:34;;;;;;;34.77;20.63;;;11.10;99.90;;;9.48;100.00;99211.31;10352913;28;96516;-79
2022/04/24 02:43:37;;;;;;;31.77;18.97;;;11.10;99.90;;;9.46;100.00;99197.38;10295125;28;97908;-79
2022/04/24 02:48:40;;;;;;;29.40;18.60;;;11.10;99.90;;;9.39;100.00;99206.06;10326804;28;96656;-78
2022/04/24 02:53:43;;;;;;;30.20;18.30;;;11.10;99.90;;;9.36;100.00;99216.25;10331983;28;96643;-78
2022/04/24 02:58:46;;;;;;;30.77;18.50;;;11.00;99.90;;;9.36;100.00;99211.75;10337191;28;96584;-79
2022/04/24 03:03:52;;;;;;;29.87;19.27;;;11.00;99.90;;;9.32;100.00;99210.47;10322717;28;96613;-79
2022/04/24 03:08:55;;;;;;;29.57;18.63;;;10.90;99.90;;;9.32;100.00;99209.66;10317555;28;96587;-79
2022/04/24 03:13:59;;;;;;;30.83;19.07;;;10.90;99.90;;;9.31;100.00;99203.53;10337369;28;96768;-79
2022/04/24 03:19:02;;;;;;;30.27;18.20;;;11.00;99.90;;;9.30;100.00;99201.06;10322899;28;97491;-78
2022/04/24 03:24:05;;;;;;;29.30;18.77;;;10.90;99.90;;;9.27;100.00;99183.69;10330501;28;97554;-78
2022/04/24 03:29:08;;;;;;;31.10;18.40;;;10.90;99.90;;;9.27;100.00;99175.72;10328196;28;96713;-78
2022/04/24 03:34:11;;;;;;;28.80;18.63;;;10.90;99.90;;;9.23;100.00;99179.75;10333047;28;98320;-78
2022/04/24 03:39:14;;;;;;;28.70;17.87;;;10.90;99.90;;;9.23;100.00;99171.78;10336261;28;96448;-77
2022/04/24 03:44:17;;;;;;;28.03;18.17;;;10.90;99.90;;;9.22;100.00;99169.34;10337963;28;98203;-78
2022/04/24 03:49:20;;;;;;;31.43;19.03;;;10.90;99.90;;;9.19;100.00;99162.59;10359456;28;96681;-77
2022/04/24 03:54:24;;;;;;;28.80;19.37;;;10.80;99.90;;;9.18;100.00;99163.59;10364874;28;98542;-78
2022/04/24 03:59:27;;;;;;;35.47;19.53;;;10.80;99.90;;;9.14;100.00;99170.25;10349912;28;96971;-78
2022/04/24 04:04:30;;;;;;;29.73;18.60;;;10.80;99.90;;;9.15;100.00;99189.63;10311382;28;96642;-78
2022/04/24 04:09:33;;;;;;;25.77;18.33;;;10.80;99.90;;;9.18;100.00;99181.34;10297813;28;98380;-78
2022/04/24 04:14:36;;;;;;;30.10;19.70;;;10.80;99.90;;;9.18;100.00;99174.19;10306842;28;96594;-78
2022/04/24 04:19:39;;;;;;;29.10;18.20;;;10.80;99.90;;;9.18;100.00;99168.91;10335446;28;96721;-77
2022/04/24 04:24:44;;;;;;;29.73;18.30;;;10.80;99.90;;;9.18;100.00;99170.72;10333820;28;97554;-78
2022/04/24 04:29:47;;;;;;;29.53;18.67;;;10.80;99.90;;;9.18;100.00;99173.38;10335517;28;96554;-78
2022/04/24 04:34:50;;;;;;;29.40;17.93;;;10.80;99.90;;;9.20;100.00;99171.34;10297942;28;96642;-78
2022/04/24 04:39:53;;;;;;;30.13;18.17;;;10.80;99.90;;;9.20;100.00;99164.22;10341967;28;96879;-79
2022/04/24 04:44:59;;;;;;;29.83;19.03;;;10.90;99.90;;;9.25;100.00;99158.38;10334620;28;98209;-79
2022/04/24 04:50:02;;;;;;;27.63;18.00;;;10.90;99.90;;;9.29;100.00;99163.09;10302774;28;96630;-78
2022/04/24 04:55:09;;;;;;;32.00;18.93;;;10.90;99.90;;;9.32;100.00;99152.16;10308004;28;96589;-78
2022/04/24 05:00:13;;;;;;;29.97;18.97;;;11.00;99.90;;;9.36;100.00;99156.09;10315716;28;96636;-78
2022/04/24 05:05:16;;;;;;;34.13;21.17;;;11.00;99.90;;;9.46;100.00;99152.31;10295644;28;96620;-79
2022/04/24 05:10:19;;;;;;;35.27;19.53;;;11.10;99.90;;;9.54;100.00;99163.63;10310917;28;96599;-79
2022/04/24 05:15:23;;;;;;;32.43;20.77;;;11.20;99.90;;;9.61;100.00;99159.22;10346262;28;97307;-79
2022/04/24 05:20:26;;;;;;;32.83;21.13;;;11.30;99.90;;;9.67;100.00;99157.66;10295923;28;96554;-79
2022/04/24 05:25:29;;;;;;;31.17;19.63;;;11.30;99.90;;;9.64;100.00;99161.50;10335629;28;96607;-78
2022/04/24 05:30:33;;;;;;;29.47;20.13;;;11.30;99.90;;;9.61;100.00;99150.44;10344199;28;97286;-77
2022/04/24 05:35:36;;;;;;;31.60;19.23;;;11.20;99.90;;;9.65;100.00;99149.03;10304117;28;96550;-79
2022/04/24 05:40:39;;;;;;;34.57;20.83;;;11.30;99.90;;;9.71;100.00;99150.94;10318450;28;97586;-78
2022/04/24 05:45:42;;;;;;;31.63;20.43;;;11.30;99.90;;;9.79;100.00;99156.16;10361892;28;96737;-79
2022/04/24 05:50:45;;;;;;;30.37;19.83;;;11.40;99.90;;;9.86;100.00;99146.44;10350227;28;96517;-79
2022/04/24 05:55:48;;;;;;;32.23;20.27;;;11.50;99.90;;;9.90;100.00;99138.94;10327700;28;96975;-77
2022/04/24 06:00:51;;;;;;;35.13;21.57;;;11.50;99.90;;;9.90;100.00;99150.34;10326552;28;96977;-79
2022/04/24 06:05:54;;;;;;;30.33;20.23;;;11.50;99.90;;;9.96;100.00;99146.13;10321570;28;96873;-79
2022/04/24 06:10:57;;;;;;;29.00;19.53;;;11.60;99.90;;;9.98;100.00;99144.09;10324927;28;98352;-79
2022/04/24 06:16:00;;;;;;;31.90;20.00;;;11.60;99.90;;;10.05;100.00;99152.94;10335823;28;96772;-79
2022/04/24 06:21:04;;;;;;;31.13;19.77;;;11.60;99.90;;;10.09;100.00;99140.94;10373797;28;96600;-79
2022/04/24 06:26:07;;;;;;;33.77;19.87;;;11.70;99.90;;;10.23;100.00;99151.66;10339519;28;98535;-79
2022/04/24 06:31:10;;;;;;;34.90;21.47;;;11.80;99.90;;;10.42;100.00;99151.84;10303359;28;96716;-79
2022/04/24 06:36:13;;;;;;;28.77;19.60;;;12.00;99.90;;;10.62;100.00;99140.59;10348030;28;96938;-79
2022/04/24 06:41:16;;;;;;;28.03;19.17;;;12.10;99.90;;;10.67;99.88;99125.66;10332700;28;96605;-78
2022/04/24 06:46:19;;;;;;;29.07;20.53;;;12.20;99.90;;;10.84;99.96;99118.22;10318915;28;96915;-79
2022/04/24 06:51:22;;;;;;;31.63;21.13;;;12.30;99.90;;;10.99;99.08;99118.94;10296294;28;96984;-79
2022/04/24 06:56:25;;;;;;;27.40;19.10;;;12.50;99.90;;;11.18;98.67;99119.22;10309828;28;97326;-78
2022/04/24 07:01:28;;;;;;;36.97;20.90;;;12.70;99.90;;;11.31;97.86;99121.94;10328115;28;96952;-78
2022/04/24 07:06:31;;;;;;;37.77;22.63;;;12.80;99.90;;;11.49;97.45;99127.50;10311411;28;96918;-78
2022/04/24 07:11:35;;;;;;;34.53;23.10;;;13.00;99.90;;;11.67;96.91;99118.97;10331830;28;96484;-78
2022/04/24 07:16:39;;;;;;;32.90;21.47;;;13.10;99.90;;;11.86;95.87;99112.06;10314722;28;96652;-78
2022/04/24 07:21:42;;;;;;;30.43;21.87;;;13.30;99.90;;;11.99;94.91;99113.94;10295370;28;97250;-78
2022/04/24 07:26:45;;;;;;;34.03;22.17;;;13.40;99.90;;;12.14;93.08;99114.56;10315220;28;98272;-78
2022/04/24 07:31:48;;;;;;;29.53;19.73;;;13.60;99.90;;;12.46;93.66;99106.78;10313449;28;96653;-77
2022/04/24 07:36:51;;;;;;;28.85;19.88;;;13.80;99.90;;;12.93;92.98;99095.00;10312820;28;96551;-78
2022/04/24 07:41:54;;;;;;;27.60;18.67;;;14.10;99.90;;;13.15;90.64;99098.22;10300043;28;97159;-77
2022/04/24 07:46:57;;;;;;;28.13;19.98;;;14.30;99.90;;;13.23;88.39;99081.16;10324325;28;96627;-77
2022/04/24 07:52:00;;;;;;;26.52;19.58;;;14.50;99.90;;;13.22;86.51;99071.53;10294812;28;97345;-77
2022/04/24 07:57:05;;;;;;;28.70;19.85;;;14.50;99.90;;;13.28;86.61;99076.03;10292446;28;97940;-77
2022/04/24 08:02:10;;;;;;;26.48;18.83;;;14.60;99.90;;;13.50;87.15;99077.34;10314198;28;98600;-77
2022/04/24 08:07:22;;;;;;;22.92;17.65;;;14.80;99.90;;;13.79;86.48;99067.09;10305386;28;98379;-76
2022/04/24 08:12:25;;;;;;;25.35;17.65;;;15.10;99.90;;;14.16;86.18;99065.38;10337739;28;98987;-77
2022/04/24 08:17:28;;;;;;;24.60;17.67;;;15.40;99.90;;;14.39;83.59;99040.69;10312303;28;98361;-77
2022/04/24 08:22:45;;;;;;;23.70;17.52;;;15.70;99.90;;;14.59;82.57;99051.25;10298976;28;96994;-77
2022/04/24 08:27:50;;;;;;;21.92;16.20;;;15.80;99.90;;;14.77;80.35;99047.75;10323568;28;96753;-77
2022/04/24 08:32:53;;;;;;;21.92;15.70;;;16.10;99.90;;;14.91;79.28;99038.53;10326985;28;98312;-77
2022/04/24 08:38:01;;;;;;;19.98;15.05;;;16.20;99.90;;;15.17;78.98;99032.03;10329599;28;96572;-77
2022/04/24 08:43:05;;;;;;;21.08;15.32;;;16.40;99.90;;;15.43;77.09;99012.13;10332763;28;96582;-78
2022/04/24 08:48:08;;;;;;;39.55;22.48;;;16.70;99.90;;;15.64;77.51;99006.25;10311704;28;97721;-77
2022/04/24 08:53:12;;;;;;;23.27;16.30;;;16.90;99.90;;;15.83;76.94;98998.94;10350351;28;98692;-77
2022/04/24 08:58:15;;;;;;;21.60;15.48;;;17.10;99.90;;;16.08;76.96;98989.91;10332437;28;96615;-77
2022/04/24 09:03:18;;;;;;;17.45;12.88;;;17.30;99.90;;;16.26;74.20;98987.94;10324401;28;98386;-77
2022/04/24 09:08:26;;;;;;;18.60;13.20;;;17.50;99.90;;;16.47;73.82;98983.81;10357116;28;96652;-77
2022/04/24 09:19:23;;;;;;;24.83;15.60;;;17.90;99.90;;;16.60;71.78;98980.88;10303142;28;96642;-76
2022/04/24 09:24:41;;;;;;;15.30;10.43;;;17.90;99.90;;;16.60;71.80;98969.31;10324037;28;96573;-76
2022/04/24 09:29:55;;;;;;;12.95;9.20;;;18.00;99.90;;;16.50;68.49;98956.53;10318905;28;96605;-76
2022/04/24 09:34:58;;;;;;;13.07;8.93;;;18.00;99.90;;;16.49;70.11;98970.16;10308745;28;98724;-76
2022/04/24 09:40:02;;;;;;;13.40;9.13;;;17.90;99.90;;;16.59;70.83;98965.03;10350248;28;96618;-76
2022/04/24 09:45:05;;;;;;;11.00;8.20;;;18.00;99.90;;;16.86;70.03;98946.56;10331493;28;97001;-77
2022/04/24 09:50:31;;;;;;;8.35;4.53;;;18.20;99.90;;;17.32;65.61;98942.00;10336846;28;97249;-79
2022/04/24 09:55:37;;;;;;;4.13;2.03;;;18.50;99.90;;;17.74;57.98;98939.78;10299168;28;96613;-78
2022/04/24 10:00:41;;;;;;;3.08;1.70;;;18.90;94.90;;;18.03;56.77;98931.63;10327670;28;96560;-80
2022/04/24 10:05:47;;;;;;;6.05;1.20;;;19.30;91.90;;;17.98;56.65;98918.09;10328516;28;96675;-80
2022/04/24 10:10:50;;;;;;;7.47;4.40;;;19.20;90.60;;;17.87;57.14;98923.34;10315874;28;96506;-80
2022/04/24 10:16:27;;;;;;;15.60;11.98;;;19.20;90.60;;;17.77;55.69;98939.31;10336684;28;97760;-79
2022/04/24 10:21:58;;;;;;;4.70;2.50;;;19.20;88.70;;;17.65;55.28;98952.78;10287234;28;96612;-80
2022/04/24 10:27:03;;;;;;;4.85;1.73;;;19.00;85.50;;;17.61;52.10;98951.63;10331450;28;97731;-80
2022/04/24 10:32:08;;;;;;;3.55;0.95;;;19.00;80.10;;;17.66;52.61;98967.84;10330297;28;96571;-79
2022/04/24 10:37:12;;;;;;;4.28;0.90;;;19.00;80.30;;;17.52;51.25;98955.00;10331936;28;97550;-80
2022/04/24 10:42:15;;;;;;;4.10;1.08;;;18.90;77.10;;;17.25;52.53;98965.50;10327936;28;98456;-80
2022/04/24 10:47:18;;;;;;;5.53;1.23;;;18.70;77.50;;;16.96;53.08;98959.34;10320981;28;96565;-79
2022/04/24 10:52:21;;;;;;;2.95;1.10;;;18.40;77.00;;;16.72;54.13;98986.25;10356256;28;97488;-78
2022/04/24 10:57:26;;;;;;;2.20;0.60;;;18.20;78.80;;;16.51;53.62;98974.25;10298609;28;96849;-78
2022/04/24 11:02:30;;;;;;;3.97;1.50;;;17.90;78.50;;;16.35;54.12;98963.44;10311697;28;98831;-78
2022/04/24 11:07:34;;;;;;;2.05;0.85;;;17.70;78.70;;;16.18;55.41;98948.06;10311594;28;96605;-78
2022/04/24 11:12:39;;;;;;;3.78;1.08;;;17.60;80.50;;;16.07;55.38;98959.59;10349551;28;96595;-79
2022/04/24 11:17:42;;;;;;;4.03;1.08;;;17.40;81.20;;;15.99;55.32;98962.63;10330710;28;96863;-79
2022/04/24 11:22:52;;;;;;;2.20;0.60;;;17.40;81.40;;;15.89;55.48;98967.75;10315681;28;96890;-79
2022/04/24 11:27:57;;;;;;;1.90;0.60;;;17.30;81.10;;;15.75;55.80;98967.97;10326495;28;96797;-79
2022/04/24 11:33:05;;;;;;;13.32;6.20;;;17.10;81.90;;;15.64;56.71;98974.13;10328369;28;97298;-80
2022/04/24 11:38:13;;;;;;;36.17;26.08;;;17.00;83.00;;;15.53;57.20;98996.31;10308469;28;98807;-79
2022/04/24 11:43:23;;;;;;;14.93;11.55;;;16.90;83.50;;;15.45;57.86;99000.13;10294028;28;97731;-79
2022/04/24 11:53:55;;;;;;;6.88;3.55;;;16.80;84.40;;;15.48;58.40;98958.72;10318288;28;96609;-79
2022/04/24 11:59:20;;;;;;;8.68;6.13;;;16.80;85.70;;;15.52;59.06;98962.56;10309675;28;96546;-79
2022/04/24 12:04:31;;;;;;;6.68;3.83;;;16.90;86.90;;;15.65;58.58;98953.50;10350309;28;96527;-78
2022/04/24 12:09:36;;;;;;;4.38;1.10;;;17.00;86.50;;;15.83;59.85;98955.28;10345086;28;96583;-79
2022/04/24 12:14:43;;;;;;;2.78;0.95;;;17.10;88.30;;;16.01;60.04;98965.88;10319763;28;96704;-78
2022/04/24 12:19:54;;;;;;;2.85;1.17;;;17.30;89.40;;;16.21;60.15;98952.16;10339547;28;97737;-79
2022/04/24 12:25:18;;;;;;;2.88;1.48;;;17.50;89.80;;;16.48;60.22;98931.81;10334353;28;98623;-79
2022/04/24 12:30:23;;;;;;;8.80;3.13;;;17.70;90.10;;;17.04;61.79;98916.03;10307932;28;97440;-79
2022/04/24 12:35:33;;;;;;;5.07;1.75;;;18.10;91.40;;;18.14;59.12;98911.88;10337497;28;98642;-79
2022/04/24 12:40:36;;;;;;;2.85;1.83;;;19.00;90.50;;;18.83;56.25;98909.53;10331002;28;97427;-79
2022/04/24 12:45:40;;;;;;;4.05;1.35;;;19.70;87.50;;;19.20;53.10;98893.47;10328527;28;96863;-79
2022/04/24 12:50:43;;;;;;;6.38;2.40;;;20.30;83.00;;;19.05;53.56;98897.91;10312850;28;96781;-79
2022/04/24 12:55:47;;;;;;;8.32;3.03;;;20.30;80.40;;;18.75;53.19;98898.41;10328903;28;97540;-79
2022/04/24 13:00:50;;;;;;;3.25;1.77;;;20.10;80.20;;;18.42;53.47;98892.91;10311601;28;96619;-79
2022/04/24 13:05:53;;;;;;;3.38;1.42;;;19.90;78.70;;;18.14;55.05;98879.63;10306326;28;96571;-79
2022/04/24 13:11:00;;;;;;;4.55;1.52;;;19.60;80.20;;;18.06;54.48;98878.19;10336542;28;96365;-79
2022/04/24 13:21:27;;;;;;;3.83;1.15;;;19.40;77.60;;;17.78;54.04;98875.63;10361950;28;96562;-79
2022/04/24 13:26:32;;;;;;;6.03;2.30;;;19.20;78.10;;;17.57;55.04;98882.53;10296322;28;96672;-79
2022/04/24 13:31:35;;;;;;;4.20;1.70;;;19.00;79.10;;;17.56;55.40;98862.09;10322135;28;98291;-79
2022/04/24 13:36:38;;;;;;;3.83;1.55;;;18.90;80.20;;;17.58;55.00;98854.63;10320120;28;98147;-79
2022/04/24 13:41:46;;;;;;;2.08;1.02;;;18.90;80.20;;;17.51;55.13;98848.59;10330283;28;96796;-79
2022/04/24 13:46:55;;;;;;;5.80;1.20;;;18.90;79.80;;;17.28;55.16;98852.28;10301258;28;96587;-79
2022/04/24 13:51:58;;;;;;;4.45;1.52;;;18.70;79.40;;;16.97;55.30;98859.00;10326274;28;96825;-79
2022/04/24 13:57:02;;;;;;;3.63;1.00;;;18.50;78.90;;;16.69;56.29;98836.50;10334319;28;96508;-78
2022/04/24 14:02:06;;;;;;;2.55;1.20;;;18.20;79.80;;;16.41;54.26;98855.25;10306300;28;96560;-79
2022/04/24 14:07:12;;;;;;;6.80;2.97;;;17.90;77.50;;;16.21;54.79;98840.41;10294191;28;96572;-78
2022/04/24 14:12:15;;;;;;;5.82;1.27;;;17.70;77.70;;;16.28;56.16;98849.09;10305580;28;96560;-78
2022/04/24 14:17:18;;;;;;;3.97;1.15;;;17.70;79.90;;;17.37;56.50;98859.66;10304501;28;96634;-79
2022/04/24 14:22:21;;;;;;;3.13;1.10;;;18.60;82.50;;;18.87;54.72;98823.69;10333185;28;96512;-78
2022/04/24 14:27:24;;;;;;;4.68;1.90;;;20.10;81.00;;;19.81;50.18;98822.28;10329674;28;97455;-79
2022/04/24 14:32:27;;;;;;;3.45;1.05;;;21.20;74.20;;;20.40;46.26;98825.50;10303471;28;97299;-78
2022/04/24 14:37:30;;;;;;;2.28;1.05;;;21.90;67.50;;;20.76;43.58;98817.50;10346597;28;96581;-78
2022/04/24 14:42:34;;;;;;;2.47;1.25;;;22.40;63.50;;;21.11;43.70;98816.72;10302776;28;96579;-78
2022/04/24 14:58:22;;;;;;;1.85;0.90;;;23.40;61.10;;;21.93;44.92;98812.03;10328592;28;96576;-79
2022/04/24 15:03:25;;;;;;;2.00;1.20;;;23.50;61.80;;;22.08;43.94;98801.16;10297888;28;96622;-80
2022/04/24 15:08:31;;;;;;;1.98;0.90;;;23.80;61.00;;;22.54;43.71;98792.00;10361012;28;97220;-80
2022/04/24 15:13:34;;;;;;;5.43;1.10;;;24.20;60.30;;;22.74;43.06;98793.78;10322106;28;97126;-79
2022/04/24 15:18:37;;;;;;;3.80;1.42;;;24.40;60.00;;;23.01;42.72;98779.78;10324996;28;96926;-79
2022/04/24 15:23:48;;;;;;;3.70;1.13;;;24.60;59.50;;;22.99;42.55;98771.94;10331300;28;96780;-78
2022/04/24 15:28:52;;;;;;;3.08;0.77;;;24.60;59.10;;;22.83;42.77;98759.59;10319819;28;97322;-79
2022/04/24 15:33:57;;;;;;;3.38;0.90;;;24.50;58.70;;;22.61;43.40;98755.44;10319092;28;97253;-79
2022/04/24 15:39:00;;;;;;;3.03;0.90;;;24.30;58.90;;;22.50;43.32;98748.47;10349433;28;97472;-78
2022/04/24 15:44:03;;;;;;;3.40;1.15;;;24.10;58.90;;;22.22;44.08;98755.38;10305226;28;98057;-79
2022/04/24 15:49:06;;;;;;;2.17;1.10;;;23.90;59.10;;;22.07;44.71;98767.09;10334191;28;96641;-79
2022/04/24 15:54:09;;;;;;;8.48;3.00;;;23.70;59.90;;;22.10;44.37;98754.91;10309853;28;96385;-79
2022/04/24 15:59:12;;;;;;;3.15;1.40;;;23.60;59.70;;;22.18;44.45;98751.63;10323304;28;96591;-79
2022/04/24 16:04:15;;;;;;;5.05;1.98;;;23.70;59.80;;;21.96;44.37;98757.38;10332640;28;96652;-79
2022/04/24 16:09:18;;;;;;;4.85;1.67;;;23.50;59.60;;;21.67;45.49;98762.63;10308506;28;97357;-79
2022/04/24 16:14:21;;;;;;;6.90;2.38;;;23.20;60.30;;;21.31;45.68;98749.19;10324852;28;98439;-80
2022/04/24 16:19:24;;;;;;;5.18;1.60;;;23.00;60.90;;;20.68;46.67;98751.34;10306106;28;97161;-79
2022/04/24 16:24:27;;;;;;;7.95;2.25;;;22.40;61.40;;;20.04;48.38;98755.25;10316497;28;97164;-79
2022/04/24 16:34:53;;;;;;;4.65;1.40;;;21.20;64.10;;;19.04;49.60;98758.97;10341489;28;96622;-79
2022/04/24 16:39:55;;;;;;;2.28;1.00;;;20.60;64.70;;;18.48;44.88;98764.66;10310470;28;96585;-79
2022/04/24 16:45:02;;;;;;;2.72;0.63;;;20.10;60.20;;;18.12;45.21;98779.59;10310452;28;99299;-79
2022/04/24 16:50:08;;;;;;;7.30;1.40;;;19.60;60.40;;;17.88;46.89;98774.47;10333235;28;96790;-79
2022/04/24 17:00:23;;;;;;;3.13;0.83;;;19.10;61.40;;;17.38;47.30;98775.38;10329088;28;97490;-79
2022/04/24 17:05:26;;;;;;;3.05;0.60;;;18.80;62.00;;;17.18;47.00;98780.44;10334254;28;96553;-79
2022/04/24 17:10:34;;;;;;;3.35;0.70;;;18.60;61.80;;;16.99;48.26;98787.13;10319085;28;98486;-79
2022/04/24 17:15:37;;;;;;;1.52;0.60;;;18.40;62.80;;;16.77;49.10;98789.69;10320673;28;98236;-79
2022/04/24 17:20:41;;;;;;;3.63;0.82;;;18.20;63.70;;;16.54;50.10;98796.78;10286943;28;97456;-79
2022/04/24 17:25:44;;;;;;;4.57;0.90;;;18.10;64.60;;;16.35;50.45;98798.03;10294317;28;96549;-79
2022/04/24 17:30:47;;;;;;;2.60;0.90;;;17.80;64.90;;;16.20;51.21;98797.75;10305330;28;97457;-79
2022/04/24 17:35:51;;;;;;;3.22;1.08;;;17.70;65.70;;;16.01;52.02;98803.28;10328175;28;96450;-79
2022/04/24 17:40:55;;;;;;;3.25;1.08;;;17.50;66.40;;;15.86;52.33;98812.88;10300891;28;96810;-78
2022/04/24 17:45:58;;;;;;;2.05;0.85;;;17.40;67.10;;;15.71;53.03;98813.34;10297169;28;96972;-78
2022/04/24 17:51:01;;;;;;;6.22;0.90;;;17.20;68.00;;;15.56;53.72;98808.44;10302335;28;97371;-79
2022/04/24 17:56:06;;;;;;;2.60;1.25;;;17.10;68.50;;;15.44;54.40;98821.00;10329053;28;98206;-78
2022/04/24 18:01:09;;;;;;;2.65;0.90;;;17.00;69.20;;;15.31;55.39;98822.06;10335139;28;97368;-79
2022/04/24 18:06:13;;;;;;;4.38;1.80;;;16.80;70.00;;;15.17;56.06;98826.81;10312266;28;98330;-79
2022/04/24 18:11:17;;;;;;;5.93;1.70;;;16.70;70.80;;;15.05;57.09;98831.31;10310718;28;96621;-78
2022/04/24 18:16:21;;;;;;;5.55;1.10;;;16.60;71.50;;;14.89;57.34;98835.50;10316353;28;96560;-78
2022/04/24 18:21:25;;;;;;;9.73;1.77;;;16.50;72.20;;;14.75;57.97;98841.25;10342763;28;96604;-78
2022/04/24 18:26:29;;;;;;;11.48;4.97;;;16.30;73.00;;;14.73;57.78;98841.47;10325795;28;96718;-78
2022/04/24 18:31:32;;;;;;;7.45;2.75;;;16.30;73.30;;;14.66;58.87;98849.59;10335540;28;98929;-79
2022/04/24 18:42:00;;;;;;;4.93;2.20;;;16.10;74.80;;;14.34;61.24;98866.88;10346722;28;96692;-79
2022/04/24 18:47:04;;;;;;;5.90;2.08;;;16.00;75.90;;;14.13;62.06;98874.28;10346389;28;98529;-80
2022/04/24 18:52:07;;;;;;;17.40;7.88;;;15.80;77.00;;;13.90;62.60;98877.59;10346713;28;96542;-79
2022/04/24 18:57:11;;;;;;;10.63;4.85;;;15.60;78.30;;;13.74;63.17;98877.38;10294318;28;96504;-81
2022/04/24 19:02:20;;;;;;;3.97;2.07;;;15.40;79.70;;;13.58;63.93;98876.91;10335036;28;96612;-80
2022/04/24 19:07:33;;;;;;;5.40;1.40;;;15.20;81.10;;;13.47;64.02;98884.81;10317700;28;96590;-80
2022/04/24 19:12:37;;;;;;;7.90;2.13;;;15.10;82.10;;;13.36;64.66;98889.00;10331547;28;96635;-80
2022/04/24 19:17:40;;;;;;;8.00;2.65;;;15.00;83.40;;;13.25;65.73;98882.50;10319425;28;96821;-80
2022/04/24 19:22:48;;;;;;;6.47;2.28;;;14.90;85.10;;;13.09;66.53;98896.34;10317084;28;96424;-78
2022/04/24 19:27:53;;;;;;;7.70;1.80;;;14.80;87.00;;;12.95;67.30;98905.47;10319917;28;96635;-79
2022/04/24 19:32:57;;;;;;;7.83;2.87;;;14.60;88.80;;;12.80;67.95;98908.44;10315795;28;97590;-79
2022/04/24 19:38:01;;;;;;;7.33;2.30;;;14.50;90.60;;;12.64;68.44;98917.72;10317526;28;98703;-79
2022/04/24 19:43:04;;;;;;;3.57;1.70;;;14.30;91.50;;;12.51;69.18;98915.94;10329025;28;96593;-79
2022/04/24 19:53:33;;;;;;;7.63;2.17;;;14.10;93.30;;;12.27;70.29;98925.44;10327387;28;96653;-79
2022/04/24 19:58:36;;;;;;;7.33;2.57;;;13.90;94.40;;;12.16;70.89;98920.78;10324965;28;96863;-79
2022/04/24 20:03:39;;;;;;;4.80;1.60;;;13.80;95.40;;;12.07;71.67;98926.53;10305303;28;96664;-79
2022/04/24 20:08:43;;;;;;;5.17;2.40;;;13.70;96.80;;;11.98;71.99;98926.75;10328248;28;97892;-79
2022/04/24 20:13:47;;;;;;;6.50;2.40;;;13.60;98.00;;;11.89;72.68;98922.69;10324608;28;96601;-80
2022/04/24 20:18:52;;;;;;;5.50;2.43;;;13.60;99.00;;;11.80;73.44;98926.53;10303333;28;96587;-80
2022/04/24 20:23:56;;;;;;;13.47;4.97;;;13.50;99.90;;;11.69;73.87;98919.19;10334436;28;96635;-80
2022/04/24 20:29:11;;;;;;;11.50;3.20;;;13.40;99.90;;;11.59;74.16;98916.94;10337120;28;96589;-80
2022/04/24 20:34:16;;;;;;;10.30;4.37;;;13.30;99.90;;;11.49;74.89;98929.84;10341413;28;97109;-80
2022/04/24 20:39:22;;;;;;;11.20;5.00;;;13.20;99.90;;;11.32;75.09;98931.25;10312022;28;98778;-80
2022/04/24 20:44:25;;;;;;;8.90;5.27;;;13.10;99.90;;;11.11;75.55;98926.94;10304519;28;98605;-80
2022/04/24 20:49:29;;;;;;;7.00;3.57;;;12.90;99.90;;;10.87;75.74;98929.16;10368901;28;97770;-80
2022/04/24 20:54:32;;;;;;;7.93;3.27;;;12.70;99.90;;;10.64;76.61;98926.00;10314253;28;96677;-80
2022/04/24 20:59:35;;;;;;;8.27;3.37;;;12.40;99.90;;;10.47;77.20;98922.06;10328018;28;96571;-80
2022/04/24 21:04:39;;;;;;;7.57;3.40;;;12.20;99.90;;;10.30;77.84;98930.34;10323309;28;96749;-80
2022/04/24 21:09:42;;;;;;;6.17;2.50;;;12.10;99.90;;;10.14;78.11;98938.63;10330954;28;97065;-80
2022/04/24 21:14:45;;;;;;;5.90;2.77;;;11.90;99.90;;;10.00;78.86;98944.84;10320425;28;96647;-79
2022/04/24 21:20:09;;;;;;;6.53;2.50;;;11.80;99.90;;;9.84;79.16;98941.50;10308841;28;98208;-79
2022/04/24 21:25:13;;;;;;;4.50;2.70;;;11.60;99.90;;;9.66;80.09;98930.56;10310798;28;97298;-79
2022/04/24 21:30:16;;;;;;;8.40;3.50;;;11.40;99.90;;;9.52;80.96;98934.09;10324762;28;97459;-80
2022/04/24 21:35:19;;;;;;;6.10;3.33;;;11.30;99.90;;;9.49;81.91;98939.78;10345416;28;96975;-80
2022/04/24 21:40:23;;;;;;;5.37;3.00;;;11.20;99.90;;;9.51;82.42;98948.38;10307047;28;96382;-79